createdAt,value
2019-04-11T00:00:03.506Z,47.87
2019-04-11T00:02:33.457Z,48.28
2019-04-11T00:05:04.298Z,48.49
2019-04-11T00:08:05.866Z,48.44
2019-04-11T00:10:35.565Z,48.48
2019-04-11T00:13:27.563Z,49.36
2019-04-11T00:19:16.344Z,50.04
2019-04-11T00:21:57.306Z,50.60
2019-04-11T00:24:27.172Z,50.68
2019-04-11T00:26:58.214Z,50.95
2019-04-11T00:29:28.217Z,51.11
2019-04-11T00:31:59.172Z,51.37
2019-04-11T00:34:29.044Z,51.77
2019-04-11T00:37:00.987Z,51.63
2019-04-11T00:39:43.710Z,51.89
2019-04-11T00:44:55.245Z,52.02
2019-04-11T00:50:00.914Z,52.68
2019-04-11T00:52:31.478Z,52.92
2019-04-11T00:58:30.381Z,53.63
2019-04-11T01:01:11.779Z,53.52
2019-04-11T01:03:41.151Z,53.52
2019-04-11T01:06:30.093Z,53.72
2019-04-11T01:08:59.997Z,53.72
2019-04-11T01:11:30.745Z,53.82
2019-04-11T01:20:35.540Z,53.23
2019-04-11T01:23:18.557Z,53.23
2019-04-11T01:29:03.014Z,54.06
2019-04-11T01:34:10.675Z,54.20
2019-04-11T01:40:05.515Z,54.51
2019-04-11T01:42:54.172Z,54.58
2019-04-11T01:48:39.648Z,54.68
2019-04-11T01:51:29.730Z,54.19
2019-04-11T01:54:01.556Z,54.15
2019-04-11T01:56:31.452Z,54.31
2019-04-11T01:59:21.659Z,54.89
2019-04-11T02:02:12.233Z,54.89
2019-04-11T02:05:19.555Z,54.70
2019-04-11T02:13:36.278Z,54.94
2019-04-11T02:16:27.247Z,54.98
2019-04-11T02:19:09.912Z,55.32
2019-04-11T02:21:40.105Z,55.32
2019-04-11T02:24:30.621Z,55.10
2019-04-11T02:27:21.446Z,55.43
2019-04-11T02:30:04.004Z,55.94
2019-04-11T02:32:47.016Z,56.05
2019-04-11T02:35:17.810Z,56.05
2019-04-11T02:44:03.697Z,56.15
2019-04-11T02:56:02.940Z,57.74
2019-04-11T03:01:53.732Z,57.81
2019-04-11T03:04:24.403Z,57.63
2019-04-11T03:13:10.545Z,57.96
2019-04-11T03:22:10.373Z,58.83
2019-04-11T03:28:01.587Z,59.01
2019-04-11T03:51:54.839Z,59.35
2019-04-11T03:57:37.356Z,59.43
2019-04-11T04:00:19.372Z,59.44
2019-04-11T04:05:44.883Z,59.40
2019-04-11T04:32:36.445Z,58.92
2019-04-11T04:35:12.674Z,58.99
2019-04-11T04:46:58.076Z,58.50
2019-04-11T04:49:25.567Z,58.08
2019-04-11T04:52:36.091Z,58.08
2019-04-11T04:55:17.326Z,58.08
2019-04-11T05:01:04.172Z,57.75
2019-04-11T05:06:34.676Z,56.79
2019-04-11T05:09:06.592Z,51.58
2019-04-11T05:11:36.209Z,43.70
2019-04-11T05:14:07.044Z,34.56
2019-04-11T05:16:37.604Z,34.56
2019-04-11T05:19:07.083Z,29.46
2019-04-11T05:21:37.174Z,26.79
2019-04-11T05:24:06.683Z,25.46
2019-04-11T05:26:36.156Z,24.43
2019-04-11T05:29:06.217Z,24.40
2019-04-11T05:31:35.825Z,24.29
2019-04-11T05:37:01.892Z,25.32
2019-04-11T05:42:33.723Z,25.61
2019-04-11T05:45:03.370Z,26.28
2019-04-11T05:47:33.139Z,24.86
2019-04-11T05:50:34.099Z,26.54
2019-04-11T05:53:05.470Z,29.20
2019-04-11T05:55:43.270Z,27.22
2019-04-11T05:58:14.238Z,29.27
2019-04-11T06:00:50.793Z,33.73
2019-04-11T06:03:20.240Z,31.86
2019-04-11T06:06:12.757Z,33.22
2019-04-11T06:08:44.049Z,35.26
2019-04-11T06:11:32.728Z,34.78
2019-04-11T06:14:19.612Z,33.82
2019-04-11T06:16:55.293Z,32.92
2019-04-11T06:19:39.754Z,32.07
2019-04-11T06:22:10.896Z,30.02
2019-04-11T06:25:16.427Z,28.01
2019-04-11T06:28:02.114Z,25.18
2019-04-11T06:30:50.701Z,25.06
2019-04-11T06:33:23.363Z,23.37
2019-04-11T06:36:11.834Z,22.74
2019-04-11T06:38:58.815Z,21.99
2019-04-11T06:41:43.489Z,23.38
2019-04-11T06:44:30.120Z,25.23
2019-04-11T06:47:34.589Z,24.83
2019-04-11T06:50:29.155Z,26.11
2019-04-11T06:52:58.922Z,28.28
2019-04-11T06:55:46.813Z,26.38
2019-04-11T06:58:23.496Z,26.42
2019-04-11T07:01:01.330Z,27.81
2019-04-11T07:03:34.509Z,28.30
2019-04-11T07:06:09.285Z,29.95
2019-04-11T07:08:48.968Z,27.28
2019-04-11T07:11:19.925Z,29.06
2019-04-11T07:13:58.168Z,28.28
2019-04-11T07:16:27.652Z,28.34
2019-04-11T07:19:19.830Z,28.12
2019-04-11T07:21:50.346Z,28.39
2019-04-11T07:24:41.834Z,27.84
2019-04-11T07:27:15.921Z,27.46
2019-04-11T07:30:07.331Z,27.23
2019-04-11T07:32:36.804Z,27.20
2019-04-11T07:35:44.931Z,27.91
2019-04-11T07:38:20.982Z,25.49
2019-04-11T07:41:09.779Z,25.60
2019-04-11T07:44:00.689Z,24.98
2019-04-11T07:46:42.999Z,26.85
2019-04-11T07:49:12.395Z,24.64
2019-04-11T07:51:55.602Z,23.79
2019-04-11T07:54:26.079Z,23.81
2019-04-11T07:57:10.444Z,24.67
2019-04-11T08:00:03.632Z,24.25
2019-04-11T08:02:50.933Z,23.65
2019-04-11T08:05:48.363Z,24.76
2019-04-11T08:08:32.456Z,25.19
2019-04-11T08:11:11.850Z,25.05
2019-04-11T08:14:00.045Z,24.54
2019-04-11T08:16:57.863Z,25.86
2019-04-11T08:19:44.759Z,26.45
2019-04-11T08:22:43.188Z,24.81
2019-04-11T08:25:31.340Z,24.31
2019-04-11T08:28:05.879Z,24.17
2019-04-11T08:30:51.611Z,24.79
2019-04-11T08:33:21.069Z,24.83
2019-04-11T08:36:09.554Z,23.65
2019-04-11T08:38:40.389Z,23.24
2019-04-11T08:41:32.251Z,23.40
2019-04-11T08:44:06.097Z,24.42
2019-04-11T08:46:41.130Z,24.13
2019-04-11T08:49:19.117Z,23.69
2019-04-11T08:51:49.545Z,23.25
2019-04-11T08:54:37.629Z,23.56
2019-04-11T08:57:07.577Z,23.33
2019-04-11T09:00:13.822Z,23.00
2019-04-11T09:02:49.125Z,23.25
2019-04-11T09:05:38.711Z,23.15
2019-04-11T09:08:26.801Z,22.52
2019-04-11T09:11:10.829Z,22.71
2019-04-11T09:14:06.133Z,22.83
2019-04-11T09:17:00.381Z,22.40
2019-04-11T09:19:49.379Z,24.56
2019-04-11T09:22:31.088Z,23.53
2019-04-11T09:25:21.189Z,22.25
2019-04-11T09:28:13.338Z,21.61
2019-04-11T09:31:19.655Z,22.48
2019-04-11T09:34:06.914Z,23.47
2019-04-11T09:37:12.822Z,22.44
2019-04-11T09:40:09.896Z,21.41
2019-04-11T09:42:48.116Z,21.35
2019-04-11T09:45:35.428Z,22.29
2019-04-11T09:48:31.760Z,23.08
2019-04-11T09:54:21.100Z,20.76
2019-04-11T09:57:16.416Z,21.00
2019-04-11T10:00:01.940Z,21.50
2019-04-11T10:03:02.943Z,20.37
2019-04-11T10:05:52.380Z,20.82
2019-04-11T10:08:41.739Z,23.06
2019-04-11T10:11:30.430Z,22.14
2019-04-11T10:14:09.143Z,22.66
2019-04-11T10:17:00.791Z,24.23
2019-04-11T10:19:38.381Z,24.25
2019-04-11T10:22:36.211Z,25.37
2019-04-11T10:25:32.088Z,25.23
2019-04-11T10:28:29.841Z,24.91
2019-04-11T10:31:10.921Z,25.75
2019-04-11T10:34:03.235Z,27.18
2019-04-11T10:36:37.031Z,26.59
2019-04-11T10:42:30.664Z,26.23
2019-04-11T10:51:22.826Z,27.36
2019-04-11T10:53:55.446Z,27.69
2019-04-11T10:56:33.255Z,27.82
2019-04-11T10:59:05.008Z,27.37
2019-04-11T11:01:52.684Z,27.50
2019-04-11T11:04:27.832Z,28.91
2019-04-11T11:07:04.477Z,27.95
2019-04-11T11:09:42.129Z,28.84
2019-04-11T11:12:43.489Z,28.33
2019-04-11T11:15:16.218Z,29.84
2019-04-11T11:18:35.067Z,29.17
2019-04-11T11:21:00.641Z,28.38
2019-04-11T11:24:06.336Z,28.67
2019-04-11T11:26:39.023Z,28.93
2019-04-11T11:29:37.146Z,29.36
2019-04-11T11:32:13.374Z,29.37
2019-04-11T11:35:01.062Z,29.14
2019-04-11T11:37:41.752Z,28.47
2019-04-11T11:40:29.942Z,29.57
2019-04-11T11:43:27.891Z,29.19
2019-04-11T11:46:17.497Z,29.47
2019-04-11T11:49:10.047Z,29.71
2019-04-11T11:51:49.798Z,29.86
2019-04-11T11:54:23.901Z,29.51
2019-04-11T11:56:56.116Z,29.29
2019-04-11T11:59:30.375Z,29.52
2019-04-11T12:02:04.312Z,29.58
2019-04-11T12:04:52.024Z,28.94
2019-04-11T12:07:25.152Z,28.87
2019-04-11T12:10:13.331Z,29.64
2019-04-11T12:13:06.706Z,28.85
2019-04-11T12:15:59.453Z,28.01
2019-04-11T12:18:47.127Z,27.73
2019-04-11T12:21:21.850Z,28.57
2019-04-11T12:24:06.609Z,27.13
2019-04-11T12:26:44.062Z,25.47
2019-04-11T12:29:22.123Z,25.07
2019-04-11T12:31:55.687Z,26.13
2019-04-11T12:34:38.730Z,25.32
2019-04-11T12:37:14.850Z,25.56
2019-04-11T12:40:12.098Z,26.71
2019-04-11T12:42:41.498Z,27.39
2019-04-11T12:45:28.950Z,26.83
2019-04-11T12:48:00.308Z,27.52
2019-04-11T12:50:51.613Z,28.22
2019-04-11T12:53:22.835Z,27.90
2019-04-11T12:56:14.041Z,27.03
2019-04-11T12:58:52.277Z,25.37
2019-04-11T13:01:52.660Z,24.71
2019-04-11T13:04:28.947Z,24.42
2019-04-11T13:07:35.244Z,25.19
2019-04-11T13:10:29.652Z,25.60
2019-04-11T13:13:20.893Z,23.86
2019-04-11T13:16:12.402Z,24.68
2019-04-11T13:18:56.864Z,25.50
2019-04-11T13:21:30.049Z,24.02
2019-04-11T13:24:18.357Z,24.65
2019-04-11T13:27:12.737Z,24.12
2019-04-11T13:30:04.203Z,24.87
2019-04-11T13:32:59.633Z,25.05
2019-04-11T13:36:06.181Z,24.11
2019-04-11T13:38:52.658Z,24.27
2019-04-11T13:41:35.375Z,23.16
2019-04-11T13:44:09.901Z,23.11
2019-04-11T13:46:58.360Z,22.46
2019-04-11T13:49:46.680Z,23.75
2019-04-11T13:52:35.000Z,22.83
2019-04-11T13:55:23.811Z,23.31
2019-04-11T13:58:12.136Z,23.01
2019-04-11T14:00:52.146Z,21.89
2019-04-11T14:03:49.429Z,20.28
2019-04-11T14:06:37.429Z,19.31
2019-04-11T14:09:30.768Z,17.96
2019-04-11T14:12:04.753Z,16.19
2019-04-11T14:14:37.388Z,16.76
2019-04-11T14:17:24.582Z,15.79
2019-04-11T14:20:28.602Z,16.07
2019-04-11T14:23:14.710Z,16.25
2019-04-11T14:26:03.517Z,16.22
2019-04-11T14:28:39.069Z,15.70
2019-04-11T14:31:25.988Z,15.52
2019-04-11T14:34:00.326Z,15.31
2019-04-11T14:36:46.545Z,15.12
2019-04-11T14:39:17.085Z,15.14
2019-04-11T14:42:05.558Z,14.95
2019-04-11T14:44:35.915Z,16.48
2019-04-11T14:47:24.373Z,16.30
2019-04-11T14:50:00.048Z,15.45
2019-04-11T14:53:03.588Z,14.93
2019-04-11T14:55:36.874Z,15.28
2019-04-11T14:58:25.257Z,16.65
2019-04-11T15:00:54.732Z,16.47
2019-04-11T15:03:45.843Z,15.75
2019-04-11T15:06:22.324Z,17.05
2019-04-11T15:09:14.728Z,17.31
2019-04-11T15:12:06.618Z,16.92
2019-04-11T15:14:53.705Z,17.12
2019-04-11T15:17:26.996Z,17.27
2019-04-11T15:20:16.879Z,17.96
2019-04-11T15:22:48.813Z,18.59
2019-04-11T15:25:38.504Z,19.84
2019-04-11T15:28:18.080Z,19.76
2019-04-11T15:30:49.507Z,20.43
2019-04-11T15:33:40.807Z,19.79
2019-04-11T15:36:10.997Z,19.57
2019-04-11T15:39:02.784Z,19.40
2019-04-11T15:41:32.235Z,20.55
2019-04-11T15:44:18.970Z,21.44
2019-04-11T15:46:48.643Z,21.20
2019-04-11T15:49:43.046Z,20.64
2019-04-11T15:52:15.719Z,20.94
2019-04-11T15:55:18.182Z,20.87
2019-04-11T15:57:53.896Z,22.27
2019-04-11T16:00:43.930Z,23.65
2019-04-11T16:03:16.263Z,25.47
2019-04-11T16:08:59.664Z,27.10
2019-04-11T16:11:48.165Z,27.75
2019-04-11T16:14:19.645Z,28.64
2019-04-11T16:17:13.317Z,29.45
2019-04-11T16:19:48.473Z,29.06
2019-04-11T16:22:55.908Z,29.87
2019-04-11T16:25:28.903Z,30.36
2019-04-11T16:28:13.960Z,30.64
2019-04-11T16:31:09.816Z,30.65
2019-04-11T16:33:53.782Z,31.37
2019-04-11T16:36:27.803Z,31.51
2019-04-11T16:39:19.597Z,32.01
2019-04-11T16:41:56.855Z,31.98
2019-04-11T16:44:46.292Z,32.01
2019-04-11T16:47:33.528Z,32.23
2019-04-11T16:50:03.136Z,32.16
2019-04-11T16:52:32.477Z,32.83
2019-04-11T16:55:02.006Z,33.31
2019-04-11T16:57:31.350Z,32.87
2019-04-11T17:00:00.692Z,33.19
2019-04-11T17:03:09.390Z,33.45
2019-04-11T17:17:38.492Z,34.66
2019-04-11T17:20:47.214Z,35.75
2019-04-11T17:23:17.410Z,35.86
2019-04-11T17:29:14.704Z,35.92
2019-04-11T17:31:44.165Z,35.74
2019-04-11T17:34:13.721Z,36.15
2019-04-11T17:36:43.100Z,36.28
2019-04-11T17:39:12.734Z,35.99
2019-04-11T17:41:42.710Z,36.85
2019-04-11T17:44:12.124Z,36.36
2019-04-11T17:46:41.514Z,35.94
2019-04-11T17:49:10.954Z,36.36
2019-04-11T17:51:42.658Z,37.12
2019-04-11T17:54:11.476Z,37.32
2019-04-11T17:56:41.831Z,37.53
2019-04-11T17:59:12.221Z,38.18
2019-04-11T18:01:41.627Z,38.55
2019-04-11T18:04:13.265Z,38.83
2019-04-11T18:06:42.168Z,39.37
2019-04-11T18:09:13.985Z,39.65
2019-04-11T18:11:43.354Z,39.84
2019-04-11T18:14:12.764Z,40.02
2019-04-11T18:16:42.147Z,40.68
2019-04-11T18:19:11.631Z,41.17
2019-04-11T18:21:41.084Z,41.35
2019-04-11T18:24:10.598Z,41.35
2019-04-11T18:26:39.976Z,41.43
2019-04-11T18:29:09.390Z,41.36
2019-04-11T18:31:39.172Z,41.25
2019-04-11T18:34:08.628Z,41.68
2019-04-11T18:36:38.146Z,42.06
2019-04-11T18:39:08.204Z,42.72
2019-04-11T18:41:37.697Z,42.26
2019-04-11T18:44:07.883Z,42.78
2019-04-11T18:46:37.274Z,42.89
2019-04-11T18:49:06.735Z,44.26
2019-04-11T18:51:36.279Z,43.92
2019-04-11T18:54:07.786Z,44.26
2019-04-11T18:56:38.266Z,43.87
2019-04-11T18:59:09.557Z,43.90
2019-04-11T19:01:39.815Z,44.37
2019-04-11T19:04:11.704Z,44.41
2019-04-11T19:06:43.016Z,44.80
2019-04-11T19:09:14.873Z,44.93
2019-04-11T19:11:46.432Z,45.08
2019-04-11T19:14:16.073Z,45.59
2019-04-11T19:16:46.828Z,45.89
2019-04-11T19:19:18.520Z,46.83
2019-04-11T19:21:50.723Z,47.24
2019-04-11T19:24:18.693Z,46.41
2019-04-11T19:26:48.068Z,46.20
2019-04-11T19:29:17.431Z,46.82
2019-04-11T19:31:47.015Z,47.25
2019-04-11T19:34:17.254Z,48.42
2019-04-11T19:36:46.604Z,48.37
2019-04-11T19:39:16.177Z,48.11
2019-04-11T19:41:47.877Z,48.31
2019-04-11T19:44:16.909Z,48.40
2019-04-11T19:46:48.422Z,48.39
2019-04-11T19:49:18.931Z,48.04
2019-04-11T19:51:50.762Z,48.49
2019-04-11T19:54:19.541Z,49.44
2019-04-11T19:57:07.817Z,49.58
2019-04-11T20:02:32.422Z,50.46
2019-04-11T20:05:01.898Z,50.38
2019-04-11T20:07:31.330Z,51.21
2019-04-11T20:10:01.495Z,50.07
2019-04-11T20:15:42.484Z,50.19
2019-04-11T20:23:55.346Z,52.40
2019-04-11T20:26:24.821Z,52.42
2019-04-11T20:28:54.326Z,51.57
2019-04-11T20:31:23.721Z,51.92
2019-04-11T20:34:32.472Z,52.32
2019-04-11T20:37:02.991Z,54.52
2019-04-11T20:40:11.882Z,53.73
2019-04-11T20:45:58.043Z,54.26
2019-04-11T20:48:27.300Z,54.25
2019-04-11T20:50:56.793Z,55.14
2019-04-11T20:53:26.258Z,55.35
2019-04-11T20:55:55.859Z,55.91
2019-04-11T20:58:27.634Z,56.71
2019-04-11T21:06:53.484Z,55.52
2019-04-11T21:09:22.885Z,55.32
2019-04-11T21:11:52.287Z,55.63
2019-04-11T21:14:21.695Z,55.64
2019-04-11T21:17:30.489Z,56.61
2019-04-11T21:20:00.238Z,56.64
2019-04-11T21:22:29.598Z,56.29
2019-04-11T21:24:59.651Z,56.50
2019-04-11T21:27:29.712Z,56.09
2019-04-11T21:29:59.982Z,56.93
2019-04-11T21:32:40.850Z,56.57
2019-04-11T21:35:30.954Z,57.23
2019-04-11T21:38:00.972Z,57.14
2019-04-11T21:40:35.625Z,57.43
2019-04-11T21:46:04.108Z,57.13
2019-04-11T21:48:36.036Z,57.43
2019-04-11T21:51:06.071Z,57.11
2019-04-11T21:53:36.741Z,58.51
2019-04-11T21:56:06.866Z,57.23
2019-04-11T21:58:36.258Z,58.76
2019-04-11T22:01:47.139Z,59.32
2019-04-11T22:04:17.010Z,58.00
2019-04-11T22:06:46.556Z,57.45
2019-04-11T22:09:55.254Z,56.83
2019-04-11T22:12:24.947Z,57.81
2019-04-11T22:14:55.369Z,58.33
2019-04-11T22:20:20.547Z,56.45
2019-04-11T22:22:50.076Z,54.53
2019-04-11T22:25:19.450Z,53.57
2019-04-11T22:27:51.055Z,53.93
2019-04-11T22:33:38.567Z,53.45
2019-04-11T22:39:35.661Z,53.62
2019-04-11T22:42:05.073Z,53.44
2019-04-11T22:45:14.700Z,53.83
2019-04-11T22:47:44.217Z,53.34
2019-04-11T22:53:43.167Z,53.04
2019-04-11T22:56:12.476Z,53.43
2019-04-11T22:58:43.461Z,54.11
2019-04-11T23:01:16.543Z,54.19
2019-04-11T23:07:11.774Z,53.43
2019-04-11T23:24:12.161Z,54.36
2019-04-11T23:26:39.705Z,54.24
2019-04-11T23:29:09.200Z,54.15
2019-04-11T23:31:38.573Z,53.96
2019-04-11T23:34:49.845Z,54.70
2019-04-11T23:37:21.109Z,54.59
2019-04-11T23:39:51.080Z,54.09
2019-04-11T23:45:28.226Z,54.48
2019-04-11T23:47:57.587Z,54.80
2019-04-11T23:50:27.311Z,54.78
2019-04-11T23:53:36.091Z,54.92
2019-04-11T23:56:05.503Z,54.76
